PWSweather.com
Personal Weather Stations
Station Observations
KMIEASTT1
Tawas Bay, East Tawas, MI 48730

Tawas BayEast Tawas, MI 48730

Lat: 44.28, Lon: -83.48

Elevation: 600

Station Type: Davis VantagePro

http://www.tawasbayweather.com

Latest ConditionsUpdated 8:45:10 PM EST Sunday, Feb 7, 2016
Currently Today's Max Today's Min Today's Average
Temperature 35.7°F2.1°C 37.3°F2.9°C 31.7°F-0.2°C 33.6°F0.9°C
Dew Point 33.1°F0.6°C 33.8°F1.0°C 29.4°F-1.4°C 31.4°F-0.3°C
Winds 5.0 mph S8.0 kmh S 11.0 mph S17.7 kmh S - 6.2 mph 10.0 kmh
Wind Gusts 6.0 mph9.7 kmh 15.0 mph24.1 kmh - -
Humidity 90% 93% 87% 91%
Pressure 29.74 in1007.1 mb 30.10 in1019.3 mb 29.73 in1006.8 mb -
Hour Temp Dew Point Humidity Winds Wind Gusts Pressure Precip Precip Rate Daily Precip Total
08:45 PM 35.7°F2.1°C 33.1°F0.6°C 90% 5.0 mph S8.0 kmh S 6.0 mph9.7 kmh 29.74 in1007.1 mb 0.00 in0.0 mm 0.00 in0.0 mm 0.00 in0.0 mm
08:30 PM 36.2°F2.3°C 33.6°F0.9°C 90% 5.0 mph SSW8.0 kmh SSW 6.0 mph9.7 kmh 29.74 in1007.1 mb 0.00 in0.0 mm 0.00 in0.0 mm 0.00 in0.0 mm
08:15 PM 36.8°F2.7°C 33.6°F0.9°C 88% 5.0 mph SW8.0 kmh SW 7.0 mph11.3 kmh 29.74 in1007.1 mb 0.00 in0.0 mm 0.00 in0.0 mm 0.00 in0.0 mm
08:00 PM 37.3°F2.9°C 33.8°F1.0°C 87% 10.0 mph SW16.1 kmh SW 11.0 mph17.7 kmh 29.75 in1007.5 mb 0.00 in0.0 mm 0.00 in0.0 mm 0.00 in0.0 mm
07:45 PM 36.4°F2.4°C 33.2°F0.7°C 88% 7.0 mph SW11.3 kmh SW 7.0 mph11.3 kmh 29.75 in1007.5 mb 0.00 in0.0 mm 0.00 in0.0 mm 0.00 in0.0 mm
07:30 PM 37.3°F2.9°C 33.8°F1.0°C 87% 6.0 mph SSW9.7 kmh SSW 8.0 mph12.9 kmh 29.75 in1007.5 mb 0.00 in0.0 mm 0.00 in0.0 mm 0.00 in0.0 mm
07:15 PM 35.7°F2.1°C 33.6°F0.9°C 92% 7.0 mph SW11.3 kmh SW 9.0 mph14.5 kmh 29.75 in1007.5 mb 0.00 in0.0 mm 0.00 in0.0 mm 0.00 in0.0 mm
07:00 PM 34.9°F1.6°C 32.5°F0.3°C 91% 4.0 mph SSW6.4 kmh SSW 5.0 mph8.0 kmh 29.75 in1007.5 mb 0.00 in0.0 mm 0.00 in0.0 mm 0.00 in0.0 mm
06:45 PM 35.4°F1.9°C 32.8°F0.4°C 90% 4.0 mph S6.4 kmh S 7.0 mph11.3 kmh 29.75 in1007.5 mb 0.00 in0.0 mm 0.00 in0.0 mm 0.00 in0.0 mm
06:30 PM 35.7°F2.1°C 33.1°F0.6°C 90% 7.0 mph S11.3 kmh S 10.0 mph16.1 kmh 29.75 in1007.5 mb 0.00 in0.0 mm 0.00 in0.0 mm 0.00 in0.0 mm
06:15 PM 35.3°F1.8°C 33.2°F0.7°C 92% 6.0 mph S9.7 kmh S 9.0 mph14.5 kmh 29.75 in1007.5 mb 0.00 in0.0 mm 0.00 in0.0 mm 0.00 in0.0 mm
06:00 PM 34.8°F1.6°C 33.0°F0.6°C 93% 5.0 mph SSE8.0 kmh SSE 7.0 mph11.3 kmh 29.75 in1007.5 mb 0.00 in0.0 mm 0.00 in0.0 mm 0.00 in0.0 mm
05:45 PM 34.2°F1.2°C 32.4°F0.2°C 93% 6.0 mph SSE9.7 kmh SSE 7.0 mph11.3 kmh 29.74 in1007.1 mb 0.00 in0.0 mm 0.00 in0.0 mm 0.00 in0.0 mm
05:30 PM 34.2°F1.2°C 32.4°F0.2°C 93% 4.0 mph SSE6.4 kmh SSE 5.0 mph8.0 kmh 29.74 in1007.1 mb 0.00 in0.0 mm 0.00 in0.0 mm 0.00 in0.0 mm
05:15 PM 34.4°F1.3°C 32.6°F0.3°C 93% 4.0 mph SSE6.4 kmh SSE 4.0 mph6.4 kmh 29.74 in1007.1 mb 0.00 in0.0 mm 0.00 in0.0 mm 0.00 in0.0 mm
05:00 PM 34.3°F1.3°C 32.5°F0.3°C 93% 2.0 mph SSE3.2 kmh SSE 5.0 mph8.0 kmh 29.73 in1006.8 mb 0.00 in0.0 mm 0.00 in0.0 mm 0.00 in0.0 mm
04:45 PM 34.5°F1.4°C 32.4°F0.2°C 92% 4.0 mph SSE6.4 kmh SSE 5.0 mph8.0 kmh 29.73 in1006.8 mb 0.00 in0.0 mm 0.00 in0.0 mm 0.00 in0.0 mm
04:30 PM 34.9°F1.6°C 32.8°F0.4°C 92% 7.0 mph SE11.3 kmh SE 8.0 mph12.9 kmh 29.73 in1006.8 mb 0.00 in0.0 mm 0.00 in0.0 mm 0.00 in0.0 mm
04:15 PM 34.7°F1.5°C 32.6°F0.3°C 92% 5.0 mph SE8.0 kmh SE 8.0 mph12.9 kmh 29.74 in1007.1 mb 0.00 in0.0 mm 0.00 in0.0 mm 0.00 in0.0 mm
04:00 PM 34.7°F1.5°C 32.9°F0.5°C 93% 4.0 mph SE6.4 kmh SE 7.0 mph11.3 kmh 29.74 in1007.1 mb 0.00 in0.0 mm 0.00 in0.0 mm 0.00 in0.0 mm
03:45 PM 34.2°F1.2°C 32.4°F0.2°C 93% 7.0 mph ESE11.3 kmh ESE 7.0 mph11.3 kmh 29.74 in1007.1 mb 0.00 in0.0 mm 0.00 in0.0 mm 0.00 in0.0 mm
03:30 PM 34.3°F1.3°C 32.2°F0.1°C 92% 4.0 mph ESE6.4 kmh ESE 4.0 mph6.4 kmh 29.75 in1007.5 mb 0.00 in0.0 mm 0.00 in0.0 mm 0.00 in0.0 mm
03:15 PM 34.8°F1.6°C 32.5°F0.3°C 91% 4.0 mph ESE6.4 kmh ESE 4.0 mph6.4 kmh 29.75 in1007.5 mb 0.00 in0.0 mm 0.00 in0.0 mm 0.00 in0.0 mm
03:00 PM 35.5°F1.9°C 33.1°F0.6°C 91% 1.0 mph SSW1.6 kmh SSW 2.0 mph3.2 kmh 29.75 in1007.5 mb 0.00 in0.0 mm 0.00 in0.0 mm 0.00 in0.0 mm
02:45 PM 35.2°F1.8°C 32.8°F0.4°C 91% Calm Calm 2.0 mph3.2 kmh 29.76 in1007.8 mb 0.00 in0.0 mm 0.00 in0.0 mm 0.00 in0.0 mm
02:30 PM 35.0°F1.7°C 32.9°F0.5°C 92% 3.0 mph SSW4.8 kmh SSW 5.0 mph8.0 kmh 29.76 in1007.8 mb 0.00 in0.0 mm 0.00 in0.0 mm 0.00 in0.0 mm
02:15 PM 34.8°F1.6°C 32.7°F0.4°C 92% 1.0 mph SE1.6 kmh SE 4.0 mph6.4 kmh 29.76 in1007.8 mb 0.00 in0.0 mm 0.00 in0.0 mm 0.00 in0.0 mm
02:00 PM 34.5°F1.4°C 32.4°F0.2°C 92% 4.0 mph ESE6.4 kmh ESE 4.0 mph6.4 kmh 29.76 in1007.8 mb 0.00 in0.0 mm 0.00 in0.0 mm 0.00 in0.0 mm
01:45 PM 34.6°F1.4°C 32.5°F0.3°C 92% 1.0 mph SE1.6 kmh SE 2.0 mph3.2 kmh 29.78 in1008.5 mb 0.00 in0.0 mm 0.00 in0.0 mm 0.00 in0.0 mm
01:30 PM 34.5°F1.4°C 32.4°F0.2°C 92% 2.0 mph SE3.2 kmh SE 4.0 mph6.4 kmh 29.79 in1008.8 mb 0.00 in0.0 mm 0.00 in0.0 mm 0.00 in0.0 mm
01:15 PM 34.1°F1.2°C 32.0°F0.0°C 92% Calm Calm 2.0 mph3.2 kmh 29.80 in1009.1 mb 0.00 in0.0 mm 0.00 in0.0 mm 0.00 in0.0 mm
01:00 PM 34.3°F1.3°C 32.2°F0.1°C 92% 3.0 mph SW4.8 kmh SW 6.0 mph9.7 kmh 29.82 in1009.8 mb 0.00 in0.0 mm 0.00 in0.0 mm 0.00 in0.0 mm
12:45 PM 34.3°F1.3°C 32.2°F0.1°C 92% 5.0 mph S8.0 kmh S 6.0 mph9.7 kmh 29.83 in1010.2 mb 0.00 in0.0 mm 0.00 in0.0 mm 0.00 in0.0 mm
12:30 PM 34.1°F1.2°C 32.0°F0.0°C 92% 2.0 mph SSE3.2 kmh SSE 4.0 mph6.4 kmh 29.83 in1010.2 mb 0.00 in0.0 mm 0.00 in0.0 mm 0.00 in0.0 mm
12:15 PM 33.9°F1.1°C 31.8°F-0.1°C 92% 4.0 mph S6.4 kmh S 5.0 mph8.0 kmh 29.85 in1010.8 mb 0.00 in0.0 mm 0.00 in0.0 mm 0.00 in0.0 mm
12:00 PM 33.8°F1.0°C 31.7°F-0.2°C 92% 5.0 mph SSE8.0 kmh SSE 7.0 mph11.3 kmh 29.85 in1010.8 mb 0.00 in0.0 mm 0.00 in0.0 mm 0.00 in0.0 mm
11:45 AM 33.8°F1.0°C 31.7°F-0.2°C 92% 5.0 mph SE8.0 kmh SE 7.0 mph11.3 kmh 29.86 in1011.2 mb 0.00 in0.0 mm 0.00 in0.0 mm 0.00 in0.0 mm
11:30 AM 33.8°F1.0°C 31.7°F-0.2°C 92% 5.0 mph SE8.0 kmh SE 8.0 mph12.9 kmh 29.87 in1011.5 mb 0.00 in0.0 mm 0.00 in0.0 mm 0.00 in0.0 mm
11:15 AM 33.8°F1.0°C 31.7°F-0.2°C 92% 6.0 mph SSE9.7 kmh SSE 8.0 mph12.9 kmh 29.87 in1011.5 mb 0.00 in0.0 mm 0.00 in0.0 mm 0.00 in0.0 mm
11:00 AM 33.7°F0.9°C 31.6°F-0.2°C 92% 4.0 mph SSE6.4 kmh SSE 7.0 mph11.3 kmh 29.88 in1011.9 mb 0.00 in0.0 mm 0.00 in0.0 mm 0.00 in0.0 mm
10:45 AM 33.6°F0.9°C 31.5°F-0.3°C 92% 3.0 mph SSE4.8 kmh SSE 5.0 mph8.0 kmh 29.88 in1011.9 mb 0.00 in0.0 mm 0.00 in0.0 mm 0.00 in0.0 mm
10:30 AM 33.5°F0.8°C 31.4°F-0.3°C 92% 4.0 mph S6.4 kmh S 7.0 mph11.3 kmh 29.89 in1012.2 mb 0.00 in0.0 mm 0.00 in0.0 mm 0.00 in0.0 mm
10:15 AM 33.5°F0.8°C 31.4°F-0.3°C 92% 6.0 mph S9.7 kmh S 8.0 mph12.9 kmh 29.89 in1012.2 mb 0.00 in0.0 mm 0.00 in0.0 mm 0.00 in0.0 mm
10:00 AM 33.4°F0.8°C 31.3°F-0.4°C 92% 9.0 mph S14.5 kmh S 10.0 mph16.1 kmh 29.89 in1012.2 mb 0.00 in0.0 mm 0.00 in0.0 mm 0.00 in0.0 mm
09:45 AM 33.1°F0.6°C 31.3°F-0.4°C 93% 6.0 mph SSE9.7 kmh SSE 7.0 mph11.3 kmh 29.89 in1012.2 mb 0.00 in0.0 mm 0.00 in0.0 mm 0.00 in0.0 mm
09:30 AM 33.0°F0.6°C 30.9°F-0.6°C 92% 5.0 mph S8.0 kmh S 8.0 mph12.9 kmh 29.90 in1012.5 mb 0.00 in0.0 mm 0.00 in0.0 mm 0.00 in0.0 mm
09:15 AM 33.0°F0.6°C 30.9°F-0.6°C 92% 8.0 mph S12.9 kmh S 9.0 mph14.5 kmh 29.91 in1012.9 mb 0.00 in0.0 mm 0.00 in0.0 mm 0.00 in0.0 mm
09:00 AM 33.0°F0.6°C 30.9°F-0.6°C 92% 8.0 mph S12.9 kmh S 10.0 mph16.1 kmh 29.92 in1013.2 mb 0.00 in0.0 mm 0.00 in0.0 mm 0.00 in0.0 mm
08:45 AM 32.9°F0.5°C 30.8°F-0.7°C 92% 9.0 mph S14.5 kmh S 11.0 mph17.7 kmh 29.92 in1013.2 mb 0.00 in0.0 mm 0.00 in0.0 mm 0.00 in0.0 mm
08:30 AM 32.9°F0.5°C 30.8°F-0.7°C 92% 7.0 mph S11.3 kmh S 11.0 mph17.7 kmh 29.92 in1013.2 mb 0.00 in0.0 mm 0.00 in0.0 mm 0.00 in0.0 mm
08:15 AM 32.9°F0.5°C 30.8°F-0.7°C 92% 7.0 mph S11.3 kmh S 12.0 mph19.3 kmh 29.93 in1013.5 mb 0.00 in0.0 mm 0.00 in0.0 mm 0.00 in0.0 mm
08:00 AM 32.9°F0.5°C 30.8°F-0.7°C 92% 8.0 mph S12.9 kmh S 13.0 mph20.9 kmh 29.93 in1013.5 mb 0.00 in0.0 mm 0.00 in0.0 mm 0.00 in0.0 mm
07:45 AM 32.9°F0.5°C 30.8°F-0.7°C 92% 10.0 mph SSW16.1 kmh SSW 15.0 mph24.1 kmh 29.93 in1013.5 mb 0.00 in0.0 mm 0.00 in0.0 mm 0.00 in0.0 mm
07:30 AM 32.8°F0.4°C 30.7°F-0.7°C 92% 11.0 mph S17.7 kmh S 13.0 mph20.9 kmh 29.93 in1013.5 mb 0.00 in0.0 mm 0.00 in0.0 mm 0.00 in0.0 mm
07:15 AM 32.7°F0.4°C 30.6°F-0.8°C 92% 9.0 mph S14.5 kmh S 15.0 mph24.1 kmh 29.93 in1013.5 mb 0.00 in0.0 mm 0.00 in0.0 mm 0.00 in0.0 mm
07:00 AM 32.8°F0.4°C 30.7°F-0.7°C 92% 9.0 mph SSW14.5 kmh SSW 13.0 mph20.9 kmh 29.95 in1014.2 mb 0.00 in0.0 mm 0.00 in0.0 mm 0.00 in0.0 mm
06:45 AM 32.7°F0.4°C 30.6°F-0.8°C 92% 11.0 mph S17.7 kmh S 15.0 mph24.1 kmh 29.97 in1014.9 mb 0.00 in0.0 mm 0.00 in0.0 mm 0.00 in0.0 mm
06:30 AM 32.6°F0.3°C 30.5°F-0.8°C 92% 11.0 mph S17.7 kmh S 13.0 mph20.9 kmh 29.99 in1015.6 mb 0.00 in0.0 mm 0.00 in0.0 mm 0.00 in0.0 mm
06:15 AM 32.4°F0.2°C 30.3°F-0.9°C 92% 9.0 mph S14.5 kmh S 14.0 mph22.5 kmh 29.99 in1015.6 mb 0.00 in0.0 mm 0.00 in0.0 mm 0.00 in0.0 mm
06:00 AM 32.3°F0.2°C 30.2°F-1.0°C 92% 10.0 mph S16.1 kmh S 14.0 mph22.5 kmh 29.99 in1015.6 mb 0.00 in0.0 mm 0.00 in0.0 mm 0.00 in0.0 mm
05:45 AM 32.3°F0.2°C 30.2°F-1.0°C 92% 11.0 mph S17.7 kmh S 14.0 mph22.5 kmh 30.00 in1015.9 mb 0.00 in0.0 mm 0.00 in0.0 mm 0.00 in0.0 mm
05:30 AM 32.2°F0.1°C 30.1°F-1.1°C 92% 11.0 mph S17.7 kmh S 15.0 mph24.1 kmh 30.00 in1015.9 mb 0.00 in0.0 mm 0.00 in0.0 mm 0.00 in0.0 mm
05:15 AM 32.0°F0.0°C 29.9°F-1.2°C 92% 10.0 mph S16.1 kmh S 14.0 mph22.5 kmh 30.01 in1016.3 mb 0.00 in0.0 mm 0.00 in0.0 mm 0.00 in0.0 mm
05:00 AM 32.0°F0.0°C 29.9°F-1.2°C 92% 11.0 mph S17.7 kmh S 12.0 mph19.3 kmh 30.02 in1016.6 mb 0.00 in0.0 mm 0.00 in0.0 mm 0.00 in0.0 mm
04:45 AM 32.0°F0.0°C 29.7°F-1.3°C 91% 10.0 mph S16.1 kmh S 14.0 mph22.5 kmh 30.03 in1016.9 mb 0.00 in0.0 mm 0.00 in0.0 mm 0.00 in0.0 mm
04:30 AM 31.9°F-0.1°C 29.6°F-1.3°C 91% 9.0 mph S14.5 kmh S 11.0 mph17.7 kmh 30.03 in1016.9 mb 0.00 in0.0 mm 0.00 in0.0 mm 0.00 in0.0 mm
04:15 AM 31.9°F-0.1°C 29.6°F-1.3°C 91% 5.0 mph N8.0 kmh N 8.0 mph12.9 kmh 30.04 in1017.3 mb 0.00 in0.0 mm 0.00 in0.0 mm 0.00 in0.0 mm
04:00 AM 31.7°F-0.2°C 29.4°F-1.4°C 91% 7.0 mph S11.3 kmh S 8.0 mph12.9 kmh 30.04 in1017.3 mb 0.00 in0.0 mm 0.00 in0.0 mm 0.00 in0.0 mm
03:45 AM 31.9°F-0.1°C 29.6°F-1.3°C 91% 6.0 mph S9.7 kmh S 8.0 mph12.9 kmh 30.05 in1017.6 mb 0.00 in0.0 mm 0.00 in0.0 mm 0.00 in0.0 mm
03:30 AM 32.1°F0.1°C 29.8°F-1.2°C 91% 6.0 mph S9.7 kmh S 8.0 mph12.9 kmh 30.06 in1017.9 mb 0.00 in0.0 mm 0.00 in0.0 mm 0.00 in0.0 mm
03:15 AM 32.2°F0.1°C 30.1°F-1.1°C 92% 7.0 mph SSW11.3 kmh SSW 7.0 mph11.3 kmh 30.07 in1018.3 mb 0.00 in0.0 mm 0.00 in0.0 mm 0.00 in0.0 mm
03:00 AM 32.2°F0.1°C 29.9°F-1.2°C 91% 6.0 mph SSW9.7 kmh SSW 8.0 mph12.9 kmh 30.08 in1018.6 mb 0.00 in0.0 mm 0.00 in0.0 mm 0.00 in0.0 mm
02:45 AM 32.2°F0.1°C 29.9°F-1.2°C 91% 5.0 mph SW8.0 kmh SW 7.0 mph11.3 kmh 30.08 in1018.6 mb 0.00 in0.0 mm 0.00 in0.0 mm 0.00 in0.0 mm
02:30 AM 32.3°F0.2°C 29.7°F-1.3°C 90% 7.0 mph SW11.3 kmh SW 10.0 mph16.1 kmh 30.08 in1018.6 mb 0.00 in0.0 mm 0.00 in0.0 mm 0.00 in0.0 mm
02:15 AM 32.2°F0.1°C 29.9°F-1.2°C 91% 7.0 mph SW11.3 kmh SW 10.0 mph16.1 kmh 30.08 in1018.6 mb 0.00 in0.0 mm 0.00 in0.0 mm 0.00 in0.0 mm
02:00 AM 32.1°F0.1°C 29.5°F-1.4°C 90% 7.0 mph SSW11.3 kmh SSW 10.0 mph16.1 kmh 30.08 in1018.6 mb 0.00 in0.0 mm 0.00 in0.0 mm 0.00 in0.0 mm
01:45 AM 32.1°F0.1°C 29.5°F-1.4°C 90% 10.0 mph SW16.1 kmh SW 12.0 mph19.3 kmh 30.08 in1018.6 mb 0.00 in0.0 mm 0.00 in0.0 mm 0.00 in0.0 mm
01:30 AM 32.1°F0.1°C 29.5°F-1.4°C 90% 7.0 mph SW11.3 kmh SW 11.0 mph17.7 kmh 30.09 in1019.0 mb 0.00 in0.0 mm 0.00 in0.0 mm 0.00 in0.0 mm
01:15 AM 32.1°F0.1°C 29.5°F-1.4°C 90% 9.0 mph SW14.5 kmh SW 10.0 mph16.1 kmh 30.09 in1019.0 mb 0.00 in0.0 mm 0.00 in0.0 mm 0.00 in0.0 mm
01:00 AM 32.2°F0.1°C 29.6°F-1.3°C 90% 7.0 mph SW11.3 kmh SW 11.0 mph17.7 kmh 30.09 in1019.0 mb 0.00 in0.0 mm 0.00 in0.0 mm 0.00 in0.0 mm
12:45 AM 32.2°F0.1°C 29.6°F-1.3°C 90% 8.0 mph SW12.9 kmh SW 12.0 mph19.3 kmh 30.09 in1019.0 mb 0.00 in0.0 mm 0.00 in0.0 mm 0.00 in0.0 mm
12:30 AM 32.2°F0.1°C 29.6°F-1.3°C 90% 7.0 mph SW11.3 kmh SW 11.0 mph17.7 kmh 30.10 in1019.3 mb 0.00 in0.0 mm 0.00 in0.0 mm 0.00 in0.0 mm
12:15 AM 32.2°F0.1°C 29.6°F-1.3°C 90% 7.0 mph SW11.3 kmh SW 11.0 mph17.7 kmh 30.10 in1019.3 mb 0.00 in0.0 mm 0.00 in0.0 mm 0.00 in0.0 mm
12:00 AM 32.2°F0.1°C 29.6°F-1.3°C 90% 9.0 mph SW14.5 kmh SW 11.0 mph17.7 kmh 30.10 in1019.3 mb 0.00 in0.0 mm 0.00 in0.0 mm 0.00 in0.0 mm